createdAt,value
2022-12-19T00:05:07.442Z,102482.25
2022-12-19T00:20:11.411Z,102473.94
2022-12-19T00:35:16.384Z,102469.65
2022-12-19T00:50:19.703Z,102463.02
2022-12-19T01:05:23.006Z,102460.90
2022-12-19T01:20:29.419Z,102456.48
2022-12-19T01:35:33.378Z,102434.45
2022-12-19T01:50:38.959Z,102411.17
2022-12-19T02:05:45.967Z,102388.42
2022-12-19T02:21:20.904Z,102377.84
2022-12-19T02:36:40.479Z,102360.95
2022-12-19T02:51:51.622Z,102334.56
2022-12-19T03:07:00.561Z,102315.38
2022-12-19T03:22:07.283Z,102311.13
2022-12-19T03:37:17.809Z,102309.04
2022-12-19T03:52:31.576Z,102319.35
2022-12-19T04:07:36.978Z,102299.73
2022-12-19T04:22:42.974Z,102283.95
2022-12-19T04:37:46.673Z,102272.70
2022-12-19T04:52:53.210Z,102263.46
2022-12-19T05:07:59.060Z,102254.88
2022-12-19T05:23:05.777Z,102248.49
2022-12-19T05:38:11.272Z,102229.85
2022-12-19T05:53:14.614Z,102217.08
2022-12-19T06:08:18.380Z,102211.61
2022-12-19T06:23:21.500Z,102209.20
2022-12-19T06:38:25.024Z,102193.35
2022-12-19T06:53:28.627Z,102188.75
2022-12-19T07:08:32.095Z,102172.44
2022-12-19T07:23:36.533Z,102158.71
2022-12-19T07:38:39.843Z,102156.55
2022-12-19T07:53:43.017Z,102161.66
2022-12-19T08:08:46.279Z,102144.95
2022-12-19T08:23:49.667Z,102114.16
2022-12-19T08:38:53.128Z,102089.76
2022-12-19T08:53:56.875Z,102072.36
2022-12-19T09:09:00.764Z,102049.91
2022-12-19T09:24:07.882Z,102025.83
2022-12-19T09:39:12.884Z,102003.95
2022-12-19T09:54:26.915Z,101977.30
2022-12-19T10:11:37.267Z,101953.02
2022-12-19T10:25:18.628Z,101900.98
2022-12-19T10:40:35.283Z,101867.31
2022-12-19T10:55:38.947Z,101834.56
2022-12-19T11:13:10.264Z,101798.20
2022-12-19T11:30:37.385Z,101767.61
2022-12-19T11:42:01.273Z,101735.16
2022-12-19T11:57:05.010Z,101721.22
2022-12-19T12:18:21.260Z,101706.48
2022-12-19T12:31:52.736Z,101695.37
2022-12-19T12:43:46.011Z,101672.85
2022-12-19T12:58:52.715Z,101644.19
2022-12-19T13:13:58.338Z,101605.89
2022-12-19T13:29:26.794Z,101579.76
2022-12-19T13:44:32.280Z,101562.14
2022-12-19T13:59:38.932Z,101551.05
2022-12-19T14:15:13.599Z,101520.70
2022-12-19T14:30:28.972Z,101520.27
2022-12-19T14:52:35.346Z,101503.08
2022-12-19T15:01:11.358Z,101485.23
2022-12-19T15:16:30.504Z,101452.26
2022-12-19T15:31:42.106Z,101435.44
2022-12-19T15:46:49.423Z,101418.86
2022-12-19T16:01:54.035Z,101407.58
2022-12-19T16:16:57.519Z,101372.45
2022-12-19T16:32:02.021Z,101351.30
2022-12-19T16:47:11.274Z,101324.81
2022-12-19T17:02:24.073Z,101312.86
2022-12-19T17:17:27.747Z,101302.02
2022-12-19T17:32:31.204Z,101294.98
2022-12-19T17:47:34.907Z,101275.81
2022-12-19T18:02:38.431Z,101271.14
2022-12-19T18:17:43.536Z,101241.55
2022-12-19T18:33:08.568Z,101221.82
2022-12-19T18:48:23.497Z,101180.13
2022-12-19T19:03:31.866Z,101154.83
2022-12-19T19:18:38.877Z,101125.94
2022-12-19T19:33:47.944Z,101110.40
2022-12-19T19:48:51.670Z,101102.88
2022-12-19T20:03:55.291Z,101071.00
2022-12-19T20:18:58.702Z,101033.21
2022-12-19T20:34:02.302Z,100994.05
2022-12-19T20:49:05.692Z,100980.06
2022-12-19T21:04:09.198Z,100968.42
2022-12-19T21:19:12.589Z,100965.41
2022-12-19T21:34:15.889Z,100931.83
2022-12-19T21:49:19.163Z,100915.44
2022-12-19T22:04:27.768Z,100904.02
2022-12-19T22:19:31.182Z,100884.81
2022-12-19T22:34:34.509Z,100857.60
2022-12-19T22:49:37.923Z,100846.65
2022-12-19T23:04:41.596Z,100824.40
2022-12-19T23:19:44.804Z,100802.08
2022-12-19T23:34:48.245Z,100786.86
2022-12-19T23:49:51.571Z,100767.07
